Time;durP1;ratioP1;P1;durP2;ratioP2;P2;SDS_P1;SDS_P2;PMS_P1;PMS_P2;Temp;Humidity;BMP_temperature;BMP_pressure;BME280_temperature;BME280_humidity;BME280_pressure;Samples;Min_cycle;Max_cycle;Signal;HPM_P1;HPM_P2
2023/09/12 00:01:58;;;;;;;14.45;9.75;;;;;;;22.31;80.02;100466.22;5049665;28;20205;-82
2023/09/12 00:04:26;;;;;;;15.45;9.55;;;;;;;22.31;80.44;100468.06;5048624;28;20229;-82
2023/09/12 00:06:53;;;;;;;13.45;10.02;;;;;;;22.27;80.53;100458.59;5049366;28;20657;-82
2023/09/12 00:09:19;;;;;;;11.27;9.77;;;;;;;22.25;80.72;100472.34;5049507;28;20655;-82
2023/09/12 00:11:45;;;;;;;13.52;10.20;;;;;;;22.21;80.95;100454.75;5047461;28;20213;-83
2023/09/12 00:14:16;;;;;;;12.27;10.10;;;;;;;22.15;81.66;100445.44;5040643;28;20237;-82
2023/09/12 00:16:42;;;;;;;12.55;10.43;;;;;;;22.12;81.44;100440.34;5049660;28;20212;-83
2023/09/12 00:19:09;;;;;;;13.68;10.93;;;;;;;22.10;81.59;100434.25;5047174;28;20221;-82
2023/09/12 00:21:36;;;;;;;15.63;10.32;;;;;;;22.07;81.76;100444.59;5048512;28;20209;-82
2023/09/12 00:24:03;;;;;;;15.98;10.23;;;;;;;22.05;81.99;100442.06;5041558;28;20225;-82
2023/09/12 00:26:31;;;;;;;14.95;11.23;;;;;;;22.01;82.27;100462.44;5048407;28;20628;-83
2023/09/12 00:28:57;;;;;;;16.15;12.13;;;;;;;21.99;82.71;100466.31;5046333;28;20636;-82
2023/09/12 00:31:24;;;;;;;14.10;11.82;;;;;;;21.96;82.84;100462.09;5045339;28;20201;-82
2023/09/12 00:33:50;;;;;;;12.27;10.27;;;;;;;21.93;82.92;100440.75;5049129;28;20232;-83
2023/09/12 00:36:16;;;;;;;15.85;11.90;;;;;;;21.90;82.99;100429.41;5049263;28;20202;-82
2023/09/12 00:38:44;;;;;;;16.60;11.35;;;;;;;21.87;83.26;100427.03;5047575;28;20213;-83
2023/09/12 00:41:11;;;;;;;16.70;12.60;;;;;;;21.81;83.39;100421.31;5049925;28;20213;-83
2023/09/12 00:43:37;;;;;;;17.63;12.73;;;;;;;21.80;83.74;100421.50;5047211;28;20224;-83
2023/09/12 00:46:04;;;;;;;18.02;12.57;;;;;;;21.77;83.77;100430.81;5052446;28;20225;-83
2023/09/12 00:48:30;;;;;;;13.68;12.25;;;;;;;21.76;83.97;100429.13;5044047;28;20219;-82
2023/09/12 00:50:57;;;;;;;15.80;12.00;;;;;;;21.74;84.15;100417.59;5048499;28;20581;-82
2023/09/12 00:53:24;;;;;;;17.13;12.65;;;;;;;21.73;84.22;100417.78;5044250;28;20229;-83
2023/09/12 00:55:56;;;;;;;17.25;12.18;;;;;;;21.72;84.27;100419.63;5045103;28;20209;-82
2023/09/12 00:58:23;;;;;;;17.60;11.85;;;;;;;21.71;84.41;100423.38;5049419;28;20198;-83
2023/09/12 01:00:50;;;;;;;15.45;12.18;;;;;;;21.69;84.51;100421.84;5050943;28;20213;-83
2023/09/12 01:03:16;;;;;;;19.90;13.70;;;;;;;21.67;84.66;100434.75;5046571;28;20240;-82
2023/09/12 01:05:44;;;;;;;16.98;12.15;;;;;;;21.64;84.92;100418.84;5048972;28;20241;-83
2023/09/12 01:08:11;;;;;;;13.85;12.48;;;;;;;21.63;85.20;100412.56;5045121;28;20210;-83
2023/09/12 01:10:37;;;;;;;17.25;12.85;;;;;;;21.61;85.27;100428.16;5044629;28;20212;-83
2023/09/12 01:13:06;;;;;;;18.33;13.35;;;;;;;21.59;85.76;100432.91;5054490;28;20229;-82
2023/09/12 01:15:33;;;;;;;15.25;13.52;;;;;;;21.56;85.83;100406.13;5052495;28;20213;-83
2023/09/12 01:18:00;;;;;;;16.08;13.02;;;;;;;21.54;86.21;100408.19;5052036;28;20227;-83
2023/09/12 01:20:29;;;;;;;17.20;14.38;;;;;;;21.52;86.32;100420.19;5047176;28;20220;-82
2023/09/12 01:23:01;;;;;;;15.98;14.35;;;;;;;21.50;86.60;100419.56;5048795;28;20208;-82
2023/09/12 01:26:03;;;;;;;16.23;14.52;;;;;;;21.46;86.43;100417.19;5053450;28;20208;-82
2023/09/12 01:28:35;;;;;;;13.50;12.18;;;;;;;21.44;86.72;100416.50;5048914;28;20216;-82
2023/09/12 01:31:03;;;;;;;16.88;13.40;;;;;;;21.44;86.63;100418.38;5046657;28;20351;-83
2023/09/12 01:33:30;;;;;;;20.70;13.60;;;;;;;21.43;87.00;100412.13;5050482;28;20291;-83
2023/09/12 01:35:56;;;;;;;14.73;13.18;;;;;;;21.40;86.99;100409.75;5052750;28;20216;-83
2023/09/12 01:38:23;;;;;;;17.88;14.02;;;;;;;21.40;87.23;100411.59;5047753;28;20216;-82
2023/09/12 01:40:52;;;;;;;15.23;13.63;;;;;;;21.38;87.23;100414.47;5049496;28;20212;-83
2023/09/12 01:43:21;;;;;;;14.93;13.40;;;;;;;21.36;87.37;100413.81;5047493;28;20222;-82
2023/09/12 01:45:53;;;;;;;21.15;12.90;;;;;;;21.35;87.12;100408.56;5053860;28;20218;-83
2023/09/12 01:48:22;;;;;;;15.90;13.10;;;;;;;21.29;86.30;100410.13;5052908;28;20212;-82
2023/09/12 01:50:49;;;;;;;15.73;14.07;;;;;;;21.18;86.00;100413.13;5043125;28;20205;-82
2023/09/12 01:53:16;;;;;;;20.65;14.10;;;;;;;21.10;86.68;100423.97;5043861;28;20241;-82
2023/09/12 01:55:44;;;;;;;15.70;13.18;;;;;;;21.04;87.04;100421.94;5044124;28;20208;-82
2023/09/12 01:58:11;;;;;;;14.43;12.85;;;;;;;21.00;87.24;100421.44;5046778;28;20251;-82
2023/09/12 02:00:39;;;;;;;15.63;13.50;;;;;;;20.97;87.63;100420.91;5049956;28;20205;-82
2023/09/12 02:03:07;;;;;;;14.30;12.80;;;;;;;20.97;88.03;100426.34;5051331;28;20228;-82
2023/09/12 02:05:34;;;;;;;16.40;13.90;;;;;;;20.93;88.27;100423.16;5051203;28;20224;-82
2023/09/12 02:08:01;;;;;;;14.67;12.63;;;;;;;20.94;88.40;100432.13;5051935;28;20229;-82
2023/09/12 02:10:28;;;;;;;15.30;13.37;;;;;;;20.90;87.35;100431.59;5050314;28;20661;-82
2023/09/12 02:12:54;;;;;;;14.63;13.10;;;;;;;20.82;87.15;100433.44;5052989;28;20661;-82
2023/09/12 02:15:20;;;;;;;15.23;13.30;;;;;;;20.74;87.29;100440.56;5045386;28;20815;-83
2023/09/12 02:17:50;;;;;;;16.87;12.97;;;;;;;20.68;87.85;100454.75;5051365;28;20201;-82
2023/09/12 02:20:18;;;;;;;14.33;12.27;;;;;;;20.65;88.33;100455.09;5052942;28;20701;-82
2023/09/12 02:22:45;;;;;;;15.20;12.77;;;;;;;20.63;88.69;100459.81;5055149;28;20216;-81
2023/09/12 02:25:11;;;;;;;16.03;14.43;;;;;;;20.59;89.24;100472.00;5050639;28;20229;-82
2023/09/12 02:27:38;;;;;;;17.77;15.53;;;;;;;20.60;90.52;100475.56;5047565;28;20235;-82
2023/09/12 02:30:06;;;;;;;21.50;17.20;;;;;;;20.62;91.83;100479.75;5046145;28;20669;-82
2023/09/12 02:32:32;;;;;;;18.40;16.45;;;;;;;20.64;92.78;100485.84;5049578;28;20204;-82
2023/09/12 02:34:58;;;;;;;24.20;18.57;;;;;;;20.66;93.61;100472.16;5043133;28;20236;-82
2023/09/12 02:37:26;;;;;;;20.75;17.30;;;;;;;20.68;94.00;100468.28;5047776;28;20296;-82
2023/09/12 02:39:53;;;;;;;22.57;19.03;;;;;;;20.67;94.20;100469.28;5050629;28;20219;-82
2023/09/12 02:42:19;;;;;;;22.83;18.70;;;;;;;20.67;94.61;100473.84;5051206;28;20211;-82
2023/09/12 02:44:46;;;;;;;20.20;17.07;;;;;;;20.67;94.23;100465.75;5043470;28;20422;-81
2023/09/12 02:47:12;;;;;;;19.83;16.07;;;;;;;20.63;93.38;100476.03;5049359;28;20239;-82
2023/09/12 02:49:38;;;;;;;18.30;16.40;;;;;;;20.54;91.74;100484.31;5049396;28;20215;-82
2023/09/12 02:52:05;;;;;;;18.60;16.50;;;;;;;20.43;91.31;100485.47;5052764;28;20215;-82
2023/09/12 02:54:33;;;;;;;20.37;17.27;;;;;;;20.34;91.15;100484.56;5050431;28;20232;-82
2023/09/12 02:56:59;;;;;;;22.20;18.27;;;;;;;20.26;91.27;100502.63;5053770;28;20208;-82
2023/09/12 02:59:26;;;;;;;20.90;18.63;;;;;;;20.22;92.79;100510.22;5053003;28;20222;-82
2023/09/12 03:01:52;;;;;;;23.03;20.37;;;;;;;20.24;95.64;100515.47;5050029;28;20211;-82
2023/09/12 03:04:19;;;;;;;22.00;19.70;;;;;;;20.26;96.76;100516.13;5052961;28;20237;-82
2023/09/12 03:06:45;;;;;;;27.33;19.27;;;;;;;20.30;97.15;100515.66;5051412;28;20233;-81
2023/09/12 03:09:12;;;;;;;22.00;19.63;;;;;;;20.31;97.50;100519.22;5051748;28;20211;-82
2023/09/12 03:11:40;;;;;;;22.13;19.70;;;;;;;20.33;97.96;100509.91;5051736;28;20341;-82
2023/09/12 03:14:06;;;;;;;22.47;18.63;;;;;;;20.33;98.10;100500.97;5047439;28;20235;-82
2023/09/12 03:16:33;;;;;;;25.70;18.53;;;;;;;20.33;97.90;100500.97;5050476;28;20211;-82
2023/09/12 03:19:01;;;;;;;22.10;19.80;;;;;;;20.32;97.90;100502.81;5047057;28;20216;-83
2023/09/12 03:21:27;;;;;;;23.83;19.50;;;;;;;20.33;97.96;100499.09;5043036;28;20211;-81
2023/09/12 03:23:54;;;;;;;26.70;21.13;;;;;;;20.33;98.10;100496.41;5041211;28;20243;-82
2023/09/12 03:26:20;;;;;;;22.27;18.87;;;;;;;20.33;98.15;100498.25;5052308;28;20239;-81
2023/09/12 03:28:49;;;;;;;22.53;18.37;;;;;;;20.32;97.74;100483.03;5047994;28;20204;-82
2023/09/12 03:31:16;;;;;;;20.23;18.23;;;;;;;20.31;97.18;100478.63;5050701;28;20204;-81
2023/09/12 03:33:47;;;;;;;23.07;19.83;;;;;;;20.27;96.97;100494.34;5050763;28;20227;-81
2023/09/12 03:36:14;;;;;;;21.27;19.13;;;;;;;20.23;96.66;100492.16;5048860;28;20207;-81
2023/09/12 03:38:41;;;;;;;19.70;17.57;;;;;;;20.18;96.57;100486.38;5041249;28;20199;-81
2023/09/12 03:41:07;;;;;;;25.97;18.27;;;;;;;20.14;96.41;100496.66;5037346;28;20210;-81
2023/09/12 03:43:34;;;;;;;20.77;18.53;;;;;;;20.12;96.61;100495.97;5042789;28;20346;-81
2023/09/12 03:46:03;;;;;;;19.63;17.47;;;;;;;20.10;96.63;100503.41;5051058;28;20210;-81
2023/09/12 03:48:30;;;;;;;21.73;18.73;;;;;;;20.09;96.76;100512.50;5049824;28;20226;-81
2023/09/12 03:50:57;;;;;;;21.77;17.93;;;;;;;20.10;97.25;100511.50;5042025;28;20208;-81
2023/09/12 03:53:23;;;;;;;21.23;18.97;;;;;;;20.11;97.43;100515.91;5046702;28;20724;-81
2023/09/12 03:55:50;;;;;;;28.97;21.57;;;;;;;20.09;97.81;100524.16;5044910;28;20208;-81
2023/09/12 03:58:16;;;;;;;23.73;20.90;;;;;;;20.10;98.53;100543.94;5051814;28;20584;-82
2023/09/12 04:00:43;;;;;;;24.77;21.13;;;;;;;20.12;99.83;100558.16;5051573;28;20210;-81
2023/09/12 04:03:11;;;;;;;25.33;19.87;;;;;;;20.15;100.00;100575.91;5045823;28;20228;-83
2023/09/12 04:05:38;;;;;;;24.03;20.30;;;;;;;20.16;100.00;100585.72;5048688;28;20461;-81
2023/09/12 04:08:05;;;;;;;25.40;21.90;;;;;;;20.13;100.00;100592.31;5051664;28;20235;-81
2023/09/12 04:10:32;;;;;;;23.60;21.07;;;;;;;20.14;100.00;100571.53;5047951;28;20204;-81
2023/09/12 04:12:58;;;;;;;23.60;20.80;;;;;;;20.14;100.00;100568.81;5044522;28;20207;-81
2023/09/12 05:20:44;;;;;;;27.63;22.13;;;;;;;19.80;100.00;100482.31;5000898;28;20615;-72
2023/09/12 05:23:11;;;;;;;23.83;21.37;;;;;;;19.82;100.00;100483.00;4976599;28;20291;-72
2023/09/12 05:25:37;;;;;;;25.70;21.30;;;;;;;19.85;100.00;100504.28;4975283;23;20235;-81
2023/09/12 05:28:05;;;;;;;27.70;22.00;;;;;;;19.87;100.00;100527.44;4971214;28;20235;-80
2023/09/12 05:30:31;;;;;;;28.80;23.03;;;;;;;19.90;100.00;100529.81;4963489;28;20667;-80
2023/09/12 05:32:57;;;;;;;25.73;22.23;;;;;;;19.96;100.00;100533.75;4970356;28;20217;-80
2023/09/12 05:35:24;;;;;;;24.30;21.80;;;;;;;19.99;100.00;100545.09;4960655;28;20709;-80
2023/09/12 05:37:52;;;;;;;24.33;21.67;;;;;;;20.04;100.00;100550.03;4960197;28;20581;-80
2023/09/12 05:40:19;;;;;;;24.43;21.77;;;;;;;20.09;100.00;100550.38;4962198;28;20668;-80
2023/09/12 05:42:46;;;;;;;26.73;20.53;;;;;;;20.13;100.00;100565.25;4963040;28;20215;-80
2023/09/12 05:45:12;;;;;;;24.33;21.63;;;;;;;20.15;100.00;100568.66;4973440;28;20226;-81
2023/09/12 05:47:39;;;;;;;22.63;20.27;;;;;;;20.17;100.00;100574.75;4965518;28;20214;-80
2023/09/12 05:50:06;;;;;;;28.63;22.87;;;;;;;20.19;100.00;100570.03;4960415;28;20228;-80
2023/09/12 05:52:33;;;;;;;29.23;23.33;;;;;;;20.20;100.00;100582.56;4964879;28;20219;-80
2023/09/12 05:55:01;;;;;;;27.10;22.50;;;;;;;20.23;100.00;100584.94;4960604;28;20656;-81
2023/09/12 05:57:27;;;;;;;27.93;22.77;;;;;;;20.24;100.00;100583.94;4965108;28;20210;-80
2023/09/12 05:59:53;;;;;;;25.60;22.93;;;;;;;20.27;100.00;100583.59;4963833;28;20237;-80
2023/09/12 06:02:20;;;;;;;27.60;22.97;;;;;;;20.29;100.00;100605.06;4962268;28;20613;-81
2023/09/12 06:04:46;;;;;;;31.57;23.53;;;;;;;20.29;100.00;100600.50;4964021;28;20581;-81
2023/09/12 06:07:13;;;;;;;27.67;23.13;;;;;;;20.30;100.00;100607.59;4958189;28;20673;-80
2023/09/12 06:09:39;;;;;;;27.67;22.67;;;;;;;20.31;100.00;100624.69;4962005;28;21084;-80
2023/09/12 06:12:08;;;;;;;27.20;23.33;;;;;;;20.31;100.00;100633.66;4962301;28;20211;-81
2023/09/12 06:14:34;;;;;;;25.80;23.13;;;;;;;20.34;100.00;100654.97;4960551;28;20214;-81
2023/09/12 06:17:01;;;;;;;28.40;23.35;;;;;;;20.35;100.00;100650.41;4959499;28;20203;-81
2023/09/12 06:19:27;;;;;;;26.37;22.20;;;;;;;20.35;100.00;100655.81;4965352;28;20238;-78
2023/09/12 06:21:55;;;;;;;25.30;22.40;;;;;;;20.33;100.00;100644.31;4955416;28;20204;-78
2023/09/12 06:24:23;;;;;;;29.00;22.10;;;;;;;20.32;100.00;100648.03;4945826;28;20216;-78
2023/09/12 06:26:49;;;;;;;26.92;22.48;;;;;;;20.30;100.00;100631.94;4946743;28;20218;-81
2023/09/12 06:29:17;;;;;;;28.97;21.87;;;;;;;20.27;100.00;100602.53;4949277;28;20232;-79
2023/09/12 06:31:44;;;;;;;29.63;21.77;;;;;;;20.21;100.00;100570.72;4944203;28;20215;-79
2023/09/12 06:34:11;;;;;;;32.57;23.50;;;;;;;20.20;100.00;100574.44;4947443;28;20214;-79
2023/09/12 06:36:39;;;;;;;30.20;22.73;;;;;;;20.16;100.00;100610.91;4946973;28;20220;-78
2023/09/12 06:39:05;;;;;;;30.23;22.03;;;;;;;20.16;100.00;100607.38;4948634;28;20235;-79
2023/09/12 06:41:32;;;;;;;30.07;23.03;;;;;;;20.05;100.00;100585.00;4945685;28;20221;-80
2023/09/12 06:43:58;;;;;;;29.03;23.47;;;;;;;20.01;100.00;100547.63;4951469;28;20211;-79
2023/09/12 06:46:27;;;;;;;36.20;24.30;;;;;;;19.96;100.00;100512.13;4950644;28;20579;-79
2023/09/12 06:48:53;;;;;;;34.93;24.17;;;;;;;19.93;100.00;100505.16;4955473;28;20216;-81
2023/09/12 06:51:24;;;;;;;38.07;26.60;;;;;;;19.92;100.00;100514.28;4956028;28;20211;-79
2023/09/12 06:53:51;;;;;;;32.43;25.27;;;;;;;19.95;100.00;100523.94;4944269;28;20214;-77
2023/09/12 06:56:17;;;;;;;29.50;24.73;;;;;;;19.98;100.00;100539.84;4948194;28;20211;-79
2023/09/12 06:58:44;;;;;;;27.27;23.20;;;;;;;19.98;100.00;100547.94;4945799;28;20240;-79
2023/09/12 07:01:10;;;;;;;28.27;23.90;;;;;;;19.97;100.00;100540.84;4954954;28;20210;-81
2023/09/12 07:03:38;;;;;;;30.27;23.93;;;;;;;19.94;100.00;100533.91;4945403;28;20206;-79
2023/09/12 07:06:05;;;;;;;31.60;24.77;;;;;;;19.88;100.00;100514.78;4946668;28;20231;-80
2023/09/12 07:08:32;;;;;;;31.00;24.40;;;;;;;19.84;100.00;100499.91;4947711;28;20276;-81
2023/09/12 07:11:05;;;;;;;29.70;25.07;;;;;;;19.81;100.00;100490.25;4950633;28;20234;-80
2023/09/12 07:13:32;;;;;;;36.63;26.47;;;;;;;19.80;100.00;100466.94;4947868;28;20714;-80
2023/09/12 07:15:59;;;;;;;35.93;26.80;;;;;;;19.81;100.00;100449.72;4950027;28;20211;-81
2023/09/12 07:18:25;;;;;;;39.90;29.17;;;;;;;19.81;100.00;100452.41;4948070;28;20207;-79
2023/09/12 07:20:59;;;;;;;37.77;28.23;;;;;;;19.83;100.00;100446.84;4957294;28;20236;-79
2023/09/12 07:23:26;;;;;;;36.47;27.63;;;;;;;19.82;100.00;100456.81;4949431;28;20195;-79
2023/09/12 07:25:53;;;;;;;32.77;25.70;;;;;;;19.85;100.00;100466.47;4949442;28;20217;-79
2023/09/12 07:28:19;;;;;;;34.23;26.13;;;;;;;19.82;100.00;100464.91;4950284;28;20299;-78
2023/09/12 07:30:46;;;;;;;32.57;23.07;;;;;;;19.83;100.00;100463.91;4948674;28;20233;-79
2023/09/12 07:33:13;;;;;;;30.97;24.60;;;;;;;19.81;100.00;100465.94;4942864;28;20223;-79
2023/09/12 07:35:40;;;;;;;30.33;24.10;;;;;;;19.81;100.00;100465.94;4953808;28;20671;-81
2023/09/12 07:38:08;;;;;;;29.63;25.73;;;;;;;19.83;100.00;100468.47;4945247;28;20214;-80
2023/09/12 07:40:34;;;;;;;32.50;26.47;;;;;;;19.86;100.00;100473.56;4945572;28;20241;-81
2023/09/12 07:43:01;;;;;;;30.97;26.73;;;;;;;19.88;100.00;100469.69;4954909;28;20217;-81
2023/09/12 07:45:27;;;;;;;29.80;24.87;;;;;;;19.92;100.00;100462.09;4944337;28;20204;-81
2023/09/12 07:47:54;;;;;;;33.00;25.10;;;;;;;19.95;100.00;100443.69;4947309;28;20217;-83
2023/09/12 07:50:20;;;;;;;34.30;26.63;;;;;;;19.98;100.00;100445.22;4949602;28;20227;-79
2023/09/12 07:52:47;;;;;;;30.90;25.73;;;;;;;20.04;100.00;100442.72;4945971;28;20232;-81
2023/09/12 07:55:15;;;;;;;31.43;25.83;;;;;;;20.08;100.00;100440.53;4949251;28;20206;-79
2023/09/12 07:57:43;;;;;;;32.87;24.40;;;;;;;20.16;100.00;100445.13;4947116;28;20661;-80
2023/09/12 08:00:10;;;;;;;28.00;23.33;;;;;;;20.23;100.00;100444.31;4954200;28;20234;-80
2023/09/12 08:02:36;;;;;;;28.47;21.53;;;;;;;20.30;100.00;100450.75;4953208;28;20214;-80
2023/09/12 08:05:03;;;;;;;28.47;22.00;;;;;;;20.33;100.00;100454.97;4947353;28;20226;-80
2023/09/12 08:07:30;;;;;;;29.57;23.67;;;;;;;20.38;100.00;100468.91;4948218;28;20236;-80
2023/09/12 08:09:58;;;;;;;25.63;22.87;;;;;;;20.43;100.00;100471.94;4951228;28;20222;-80
2023/09/12 08:12:28;;;;;;;24.77;21.43;;;;;;;20.48;100.00;100474.16;4957672;28;20225;-82
2023/09/12 08:14:55;;;;;;;24.10;20.83;;;;;;;20.55;100.00;100486.03;4955242;28;20479;-81
2023/09/12 08:17:23;;;;;;;26.57;23.27;;;;;;;20.62;100.00;100489.75;4946958;28;20238;-81
2023/09/12 08:19:49;;;;;;;22.70;20.30;;;;;;;20.70;100.00;100490.63;4947103;28;20727;-80
2023/09/12 08:22:18;;;;;;;23.33;20.83;;;;;;;20.77;100.00;100498.94;4948473;28;20289;-81
2023/09/12 08:24:45;;;;;;;23.23;19.60;;;;;;;20.80;100.00;100501.28;4947300;28;20224;-81
2023/09/12 08:27:11;;;;;;;21.40;19.20;;;;;;;20.86;100.00;100511.44;4945148;28;20209;-83
2023/09/12 08:29:39;;;;;;;18.60;16.88;;;;;;;20.85;100.00;100523.28;4951748;28;20234;-80
2023/09/12 08:32:06;;;;;;;19.05;16.92;;;;;;;20.86;100.00;100543.94;4949128;28;20204;-82
2023/09/12 08:34:32;;;;;;;16.27;14.75;;;;;;;20.89;100.00;100561.72;4946604;28;20685;-81
2023/09/12 08:36:59;;;;;;;16.05;14.43;;;;;;;20.87;100.00;100572.69;4946469;28;20212;-81
2023/09/12 08:39:28;;;;;;;15.88;13.70;;;;;;;20.89;100.00;100596.91;4949918;28;20269;-81
2023/09/12 08:41:55;;;;;;;13.48;12.13;;;;;;;20.88;100.00;100596.06;4948960;28;20310;-80
2023/09/12 08:44:22;;;;;;;13.60;12.30;;;;;;;20.87;100.00;100598.91;4962673;28;20227;-80
2023/09/12 08:46:50;;;;;;;16.85;15.25;;;;;;;20.86;100.00;100619.72;4945176;28;20208;-81
2023/09/12 08:49:16;;;;;;;19.17;16.38;;;;;;;20.87;100.00;100628.69;4947114;28;20221;-81
2023/09/12 08:51:44;;;;;;;19.85;17.85;;;;;;;20.93;100.00;100617.22;4947033;28;20227;-80
2023/09/12 08:54:10;;;;;;;22.45;19.60;;;;;;;20.92;100.00;100624.50;4944965;28;20236;-79
2023/09/12 08:56:40;;;;;;;21.02;19.00;;;;;;;20.93;100.00;100618.06;4947236;28;20208;-79
2023/09/12 08:59:08;;;;;;;22.45;19.98;;;;;;;20.95;100.00;100615.19;4942193;28;20228;-79
2023/09/12 09:01:35;;;;;;;22.27;19.10;;;;;;;20.95;100.00;100631.44;4948560;28;20241;-80
2023/09/12 09:04:05;;;;;;;19.55;17.55;;;;;;;20.95;100.00;100628.75;4945247;28;20236;-80
2023/09/12 09:06:37;;;;;;;20.50;18.35;;;;;;;20.95;100.00;100631.44;4946906;28;20204;-81
2023/09/12 09:09:06;;;;;;;20.85;18.73;;;;;;;20.99;100.00;100633.63;4956105;28;20223;-82
2023/09/12 09:11:32;;;;;;;20.15;18.15;;;;;;;21.02;100.00;100646.00;4954917;28;20297;-81
2023/09/12 09:13:59;;;;;;;21.35;19.25;;;;;;;21.07;100.00;100638.25;4949466;28;20205;-81
2023/09/12 09:16:25;;;;;;;21.17;18.90;;;;;;;21.12;100.00;100657.56;4952758;28;20215;-80
2023/09/12 09:18:54;;;;;;;22.98;18.25;;;;;;;21.24;100.00;100658.13;4961962;28;20254;-81
2023/09/12 09:21:24;;;;;;;18.17;16.38;;;;;;;21.35;100.00;100665.91;4949002;28;20237;-80
2023/09/12 09:23:51;;;;;;;19.25;15.98;;;;;;;21.47;100.00;100668.16;4951483;28;20236;-81
2023/09/12 09:26:18;;;;;;;19.33;16.08;;;;;;;21.60;100.00;100673.09;4948617;28;20595;-80
2023/09/12 09:28:44;;;;;;;16.70;15.02;;;;;;;21.72;100.00;100676.31;4957744;28;20216;-81
2023/09/12 09:31:12;;;;;;;17.13;14.75;;;;;;;21.85;100.00;100682.09;4951486;28;20213;-81
2023/09/12 09:33:40;;;;;;;17.75;14.82;;;;;;;21.99;100.00;100675.13;4946556;28;20219;-81
2023/09/12 09:36:08;;;;;;;14.40;13.00;;;;;;;22.12;100.00;100667.34;4942491;28;20201;-81
2023/09/12 09:38:36;;;;;;;11.82;10.65;;;;;;;22.23;98.59;100664.28;4957501;28;20204;-82
2023/09/12 09:41:05;;;;;;;10.45;9.00;;;;;;;22.30;95.40;100654.44;4948556;28;20320;-81
2023/09/12 09:43:33;;;;;;;9.57;8.40;;;;;;;22.36;93.26;100661.03;4946849;28;20667;-82
2023/09/12 09:45:59;;;;;;;7.38;6.68;;;;;;;22.36;90.08;100663.75;4952510;28;20709;-81
2023/09/12 09:48:27;;;;;;;6.78;6.18;;;;;;;22.29;89.40;100658.16;4947049;28;20205;-82
2023/09/12 09:51:00;;;;;;;6.03;5.50;;;;;;;22.27;88.47;100652.06;4955780;28;20279;-81
2023/09/12 09:53:27;;;;;;;5.10;4.53;;;;;;;22.27;88.06;100646.63;4954110;28;20205;-81
2023/09/12 09:56:08;;;;;;;6.18;4.30;;;;;;;22.28;86.41;100659.19;4953259;28;20606;-81
2023/09/12 09:58:35;;;;;;;4.75;4.30;;;;;;;22.24;85.04;100656.97;4969258;28;20208;-81
2023/09/12 10:01:03;;;;;;;5.13;4.45;;;;;;;22.25;85.25;100651.38;4960436;28;20568;-81
2023/09/12 10:03:33;;;;;;;4.95;4.45;;;;;;;22.29;85.30;100650.03;4956275;28;20204;-81
2023/09/12 10:06:04;;;;;;;5.18;4.68;;;;;;;22.31;83.93;100648.00;4960723;28;20212;-81
2023/09/12 10:08:33;;;;;;;4.95;4.35;;;;;;;22.30;83.01;100631.88;4960529;28;20206;-85
2023/09/12 10:11:01;;;;;;;5.45;4.93;;;;;;;22.28;83.15;100636.63;4952682;28;20248;-81
2023/09/12 10:13:32;;;;;;;5.80;5.05;;;;;;;22.29;82.71;100636.47;4951814;28;20213;-82
2023/09/12 10:16:01;;;;;;;5.22;4.53;;;;;;;22.34;81.92;100635.94;4951663;28;20622;-82
2023/09/12 10:18:31;;;;;;;5.07;4.47;;;;;;;22.37;82.68;100649.19;4955385;28;20205;-82
2023/09/12 10:21:07;;;;;;;5.22;4.70;;;;;;;22.42;82.72;100646.78;4946280;28;20701;-81
2023/09/12 10:23:41;;;;;;;5.53;5.03;;;;;;;22.45;83.46;100633.69;4952733;28;20205;-83
2023/09/12 10:26:11;;;;;;;4.68;4.28;;;;;;;22.51;83.61;100633.00;4968812;28;20213;-82
2023/09/12 10:28:39;;;;;;;5.63;5.13;;;;;;;22.56;83.09;100615.38;4946806;28;20224;-83
2023/09/12 10:31:07;;;;;;;4.72;4.32;;;;;;;22.65;83.37;100620.56;4950059;28;20636;-82
2023/09/12 10:33:34;;;;;;;5.20;4.72;;;;;;;22.73;83.64;100623.28;4948212;28;20674;-81
2023/09/12 10:36:03;;;;;;;4.55;4.15;;;;;;;22.87;81.54;100621.69;4951624;28;20658;-81
2023/09/12 10:38:33;;;;;;;5.22;4.30;;;;;;;22.92;80.15;100632.03;4948720;28;20220;-84
2023/09/12 10:41:03;;;;;;;5.40;4.90;;;;;;;22.96;80.73;100619.78;4953237;28;20232;-80
2023/09/12 10:43:33;;;;;;;5.70;4.65;;;;;;;22.99;80.53;100622.97;4951097;28;20275;-81
2023/09/12 10:46:03;;;;;;;5.53;4.03;;;;;;;23.04;79.89;100625.19;4956451;28;20209;-84
2023/09/12 10:48:30;;;;;;;4.95;4.45;;;;;;;23.05;79.94;100632.31;4950395;28;20205;-81
2023/09/12 10:50:59;;;;;;;4.95;4.55;;;;;;;23.05;80.08;100635.03;4951790;28;20289;-82
2023/09/12 10:53:28;;;;;;;4.95;4.55;;;;;;;23.04;79.20;100636.88;4947234;28;20220;-81
2023/09/12 10:56:01;;;;;;;4.60;4.20;;;;;;;23.00;78.89;100635.53;4947631;28;21403;-81
2023/09/12 10:58:29;;;;;;;5.65;4.53;;;;;;;22.98;79.22;100631.31;4953708;28;20229;-81
2023/09/12 11:01:25;;;;;;;4.88;4.47;;;;;;;22.94;79.29;100629.97;4947655;28;20232;-81
2023/09/12 11:03:52;;;;;;;4.50;4.10;;;;;;;22.90;78.11;100636.78;4953741;28;20209;-81
2023/09/12 11:06:23;;;;;;;7.22;4.60;;;;;;;22.82;78.24;100641.22;4950200;28;20223;-81
2023/09/12 11:09:18;;;;;;;5.43;4.95;;;;;;;22.78;79.10;100636.31;4944642;28;20213;-80
2023/09/12 11:11:47;;;;;;;5.13;4.63;;;;;;;22.78;79.66;100628.19;4946737;28;20205;-81
2023/09/12 11:14:15;;;;;;;5.55;4.97;;;;;;;22.80;80.22;100629.69;4946914;28;20217;-80
2023/09/12 11:16:44;;;;;;;6.10;5.43;;;;;;;22.81;80.45;100639.53;4950566;28;20238;-80
2023/09/12 11:19:19;;;;;;;5.70;5.10;;;;;;;22.83;80.50;100639.38;4944928;28;20251;-79
2023/09/12 11:21:47;;;;;;;6.00;5.40;;;;;;;22.79;80.11;100647.00;4944682;28;20239;-79
2023/09/12 11:24:14;;;;;;;5.72;5.22;;;;;;;22.77;80.15;100649.06;4949522;28;20208;-79
2023/09/12 11:26:55;;;;;;;6.13;5.63;;;;;;;22.74;80.25;100645.84;4954011;28;20240;-78
2023/09/12 11:29:22;;;;;;;5.32;4.88;;;;;;;22.71;80.48;100657.88;4956822;28;20599;-79
2023/09/12 11:31:57;;;;;;;6.07;5.57;;;;;;;22.69;80.57;100673.50;4947613;28;20627;-80
2023/09/12 11:34:25;;;;;;;6.35;5.32;;;;;;;22.65;80.89;100682.16;4953677;28;20203;-81
2023/09/12 11:36:56;;;;;;;5.70;5.20;;;;;;;22.61;80.91;100689.81;4950965;28;20209;-81
2023/09/12 11:39:26;;;;;;;5.88;5.28;;;;;;;22.58;80.92;100684.72;4951498;28;20243;-81
2023/09/12 11:41:54;;;;;;;5.30;4.80;;;;;;;22.52;81.12;100677.28;4946977;28;20231;-81
2023/09/12 11:44:21;;;;;;;6.70;6.20;;;;;;;22.47;81.58;100666.09;4953324;28;20867;-80
2023/09/12 11:46:49;;;;;;;6.40;5.80;;;;;;;22.46;82.95;100681.53;4951929;28;20604;-81
2023/09/12 11:49:19;;;;;;;6.50;5.88;;;;;;;22.49;84.04;100685.78;4949854;28;20711;-81
2023/09/12 11:51:54;;;;;;;6.65;6.05;;;;;;;22.50;83.94;100690.19;4954155;28;20208;-81
2023/09/12 11:54:25;;;;;;;6.82;6.22;;;;;;;22.45;83.72;100695.28;4976291;28;20538;-80
2023/09/12 11:56:56;;;;;;;7.18;6.47;;;;;;;22.43;84.07;100681.03;4954527;28;20207;-80
2023/09/12 11:59:23;;;;;;;7.43;6.72;;;;;;;22.42;84.62;100684.75;4953320;28;20275;-81
2023/09/12 12:01:50;;;;;;;7.13;6.40;;;;;;;22.42;84.35;100682.91;4953274;28;20228;-81
2023/09/12 12:04:18;;;;;;;7.45;6.50;;;;;;;22.41;83.99;100689.34;4955526;28;20306;-81
2023/09/12 12:06:44;;;;;;;6.72;5.97;;;;;;;22.40;83.03;100660.50;4950809;28;20578;-81
2023/09/12 12:09:11;;;;;;;6.70;6.05;;;;;;;22.35;83.26;100645.78;4960351;28;20237;-81
2023/09/12 12:11:38;;;;;;;6.95;6.25;;;;;;;22.34;83.43;100631.38;4961319;28;20331;-80
2023/09/12 12:14:13;;;;;;;6.68;5.78;;;;;;;22.28;83.21;100618.50;4953038;28;20200;-80
2023/09/12 12:16:40;;;;;;;6.35;5.80;;;;;;;22.29;84.26;100619.34;4951602;28;20208;-81
2023/09/12 12:19:06;;;;;;;6.55;5.88;;;;;;;22.34;84.59;100620.53;4951984;28;20231;-80